sensor_id;sensor_type;location;lat;lon;timestamp;P1;durP1;ratioP1;P2;durP2;ratioP2
50739;SDS011;36704;52.524;17.580;2023-05-31T00:02:11;8.90;;;3.60;;
50739;SDS011;36704;52.524;17.580;2023-05-31T00:04:58;7.20;;;3.10;;
50739;SDS011;36704;52.524;17.580;2023-05-31T00:07:44;7.90;;;3.25;;
50739;SDS011;36704;52.524;17.580;2023-05-31T00:10:31;7.25;;;2.83;;
50739;SDS011;36704;52.524;17.580;2023-05-31T00:13:16;6.85;;;3.13;;
50739;SDS011;36704;52.524;17.580;2023-05-31T00:16:03;10.93;;;3.17;;
50739;SDS011;36704;52.524;17.580;2023-05-31T00:18:51;11.68;;;2.90;;
50739;SDS011;36704;52.524;17.580;2023-05-31T00:21:37;13.63;;;4.03;;
50739;SDS011;36704;52.524;17.580;2023-05-31T00:24:23;12.65;;;4.13;;
50739;SDS011;36704;52.524;17.580;2023-05-31T00:27:09;7.22;;;2.88;;
50739;SDS011;36704;52.524;17.580;2023-05-31T00:29:56;10.90;;;3.20;;
50739;SDS011;36704;52.524;17.580;2023-05-31T00:32:42;12.00;;;3.50;;
50739;SDS011;36704;52.524;17.580;2023-05-31T00:35:28;12.43;;;3.70;;
50739;SDS011;36704;52.524;17.580;2023-05-31T00:38:14;13.00;;;4.90;;
50739;SDS011;36704;52.524;17.580;2023-05-31T00:41:01;15.02;;;4.82;;
50739;SDS011;36704;52.524;17.580;2023-05-31T00:43:47;10.27;;;3.13;;
50739;SDS011;36704;52.524;17.580;2023-05-31T00:46:34;8.80;;;3.35;;
50739;SDS011;36704;52.524;17.580;2023-05-31T00:49:22;9.90;;;3.45;;
50739;SDS011;36704;52.524;17.580;2023-05-31T00:52:08;17.25;;;6.22;;
50739;SDS011;36704;52.524;17.580;2023-05-31T00:54:54;7.25;;;3.08;;
50739;SDS011;36704;52.524;17.580;2023-05-31T00:57:41;13.77;;;5.53;;
50739;SDS011;36704;52.524;17.580;2023-05-31T01:00:27;14.98;;;4.68;;
50739;SDS011;36704;52.524;17.580;2023-05-31T01:03:14;15.15;;;5.78;;
50739;SDS011;36704;52.524;17.580;2023-05-31T01:06:02;10.27;;;4.13;;
50739;SDS011;36704;52.524;17.580;2023-05-31T01:08:49;16.15;;;5.07;;
50739;SDS011;36704;52.524;17.580;2023-05-31T01:11:42;14.02;;;5.13;;
50739;SDS011;36704;52.524;17.580;2023-05-31T01:20:17;18.58;;;6.28;;
50739;SDS011;36704;52.524;17.580;2023-05-31T01:23:11;14.75;;;5.38;;
50739;SDS011;36704;52.524;17.580;2023-05-31T01:29:32;14.13;;;5.32;;
50739;SDS011;36704;52.524;17.580;2023-05-31T01:32:20;9.48;;;4.15;;
50739;SDS011;36704;52.524;17.580;2023-05-31T01:35:07;16.05;;;5.97;;
50739;SDS011;36704;52.524;17.580;2023-05-31T01:37:55;11.15;;;4.53;;
50739;SDS011;36704;52.524;17.580;2023-05-31T01:40:41;15.80;;;5.47;;
50739;SDS011;36704;52.524;17.580;2023-05-31T01:43:27;13.48;;;4.60;;
50739;SDS011;36704;52.524;17.580;2023-05-31T01:46:14;16.25;;;5.00;;
50739;SDS011;36704;52.524;17.580;2023-05-31T01:49:01;14.90;;;5.65;;
50739;SDS011;36704;52.524;17.580;2023-05-31T01:51:47;13.75;;;5.32;;
50739;SDS011;36704;52.524;17.580;2023-05-31T01:54:34;11.23;;;4.03;;
50739;SDS011;36704;52.524;17.580;2023-05-31T01:57:23;14.32;;;4.95;;
50739;SDS011;36704;52.524;17.580;2023-05-31T02:00:10;10.93;;;5.03;;
50739;SDS011;36704;52.524;17.580;2023-05-31T02:02:58;17.13;;;5.65;;
50739;SDS011;36704;52.524;17.580;2023-05-31T02:05:58;14.52;;;5.70;;
50739;SDS011;36704;52.524;17.580;2023-05-31T02:08:44;16.02;;;5.53;;
50739;SDS011;36704;52.524;17.580;2023-05-31T02:11:31;16.60;;;5.25;;
50739;SDS011;36704;52.524;17.580;2023-05-31T02:14:17;13.88;;;5.20;;
50739;SDS011;36704;52.524;17.580;2023-05-31T02:17:04;20.45;;;5.72;;
50739;SDS011;36704;52.524;17.580;2023-05-31T02:19:50;20.65;;;5.75;;
50739;SDS011;36704;52.524;17.580;2023-05-31T02:22:37;14.55;;;4.10;;
50739;SDS011;36704;52.524;17.580;2023-05-31T02:25:23;16.33;;;6.55;;
50739;SDS011;36704;52.524;17.580;2023-05-31T02:28:10;16.65;;;5.38;;
50739;SDS011;36704;52.524;17.580;2023-05-31T02:30:57;17.63;;;4.90;;
50739;SDS011;36704;52.524;17.580;2023-05-31T02:33:44;18.75;;;6.65;;
50739;SDS011;36704;52.524;17.580;2023-05-31T02:36:30;16.00;;;6.05;;
50739;SDS011;36704;52.524;17.580;2023-05-31T02:39:16;18.17;;;7.22;;
50739;SDS011;36704;52.524;17.580;2023-05-31T02:42:03;18.80;;;6.10;;
50739;SDS011;36704;52.524;17.580;2023-05-31T02:44:50;13.68;;;5.60;;
50739;SDS011;36704;52.524;17.580;2023-05-31T02:47:38;12.15;;;5.20;;
50739;SDS011;36704;52.524;17.580;2023-05-31T02:50:24;19.52;;;7.15;;
50739;SDS011;36704;52.524;17.580;2023-05-31T02:53:12;11.00;;;4.57;;
50739;SDS011;36704;52.524;17.580;2023-05-31T02:56:11;12.77;;;5.25;;
50739;SDS011;36704;52.524;17.580;2023-05-31T02:59:21;18.90;;;7.32;;
50739;SDS011;36704;52.524;17.580;2023-05-31T03:02:19;12.55;;;5.38;;
50739;SDS011;36704;52.524;17.580;2023-05-31T03:05:40;12.40;;;5.78;;
50739;SDS011;36704;52.524;17.580;2023-05-31T03:08:27;20.20;;;6.70;;
50739;SDS011;36704;52.524;17.580;2023-05-31T03:11:14;17.80;;;6.00;;
50739;SDS011;36704;52.524;17.580;2023-05-31T03:14:00;14.18;;;5.20;;
50739;SDS011;36704;52.524;17.580;2023-05-31T03:17:00;17.90;;;6.47;;
50739;SDS011;36704;52.524;17.580;2023-05-31T03:19:46;15.48;;;5.95;;
50739;SDS011;36704;52.524;17.580;2023-05-31T03:22:32;13.77;;;5.65;;
50739;SDS011;36704;52.524;17.580;2023-05-31T03:25:19;16.73;;;5.55;;
50739;SDS011;36704;52.524;17.580;2023-05-31T03:28:05;19.42;;;6.30;;
50739;SDS011;36704;52.524;17.580;2023-05-31T03:30:54;14.10;;;5.97;;
50739;SDS011;36704;52.524;17.580;2023-05-31T03:33:41;11.05;;;4.82;;
50739;SDS011;36704;52.524;17.580;2023-05-31T03:36:27;19.38;;;6.45;;
50739;SDS011;36704;52.524;17.580;2023-05-31T03:39:14;19.80;;;6.45;;
50739;SDS011;36704;52.524;17.580;2023-05-31T03:42:01;16.90;;;5.57;;
50739;SDS011;36704;52.524;17.580;2023-05-31T03:44:47;12.88;;;4.50;;
50739;SDS011;36704;52.524;17.580;2023-05-31T03:47:34;17.33;;;5.50;;
50739;SDS011;36704;52.524;17.580;2023-05-31T03:50:21;13.27;;;5.70;;
50739;SDS011;36704;52.524;17.580;2023-05-31T03:53:07;13.18;;;5.05;;
50739;SDS011;36704;52.524;17.580;2023-05-31T03:55:53;14.55;;;5.32;;
50739;SDS011;36704;52.524;17.580;2023-05-31T03:58:40;17.95;;;5.70;;
50739;SDS011;36704;52.524;17.580;2023-05-31T04:01:27;12.40;;;4.82;;
50739;SDS011;36704;52.524;17.580;2023-05-31T04:04:14;13.10;;;4.78;;
50739;SDS011;36704;52.524;17.580;2023-05-31T04:07:00;14.73;;;5.13;;
50739;SDS011;36704;52.524;17.580;2023-05-31T04:09:46;17.48;;;5.80;;
50739;SDS011;36704;52.524;17.580;2023-05-31T04:12:32;19.20;;;6.03;;
50739;SDS011;36704;52.524;17.580;2023-05-31T04:15:19;19.55;;;5.45;;
50739;SDS011;36704;52.524;17.580;2023-05-31T04:18:06;10.98;;;4.32;;
50739;SDS011;36704;52.524;17.580;2023-05-31T04:20:52;10.98;;;4.40;;
50739;SDS011;36704;52.524;17.580;2023-05-31T04:23:38;16.42;;;6.05;;
50739;SDS011;36704;52.524;17.580;2023-05-31T04:26:25;14.48;;;5.70;;
50739;SDS011;36704;52.524;17.580;2023-05-31T04:29:12;11.45;;;4.85;;
50739;SDS011;36704;52.524;17.580;2023-05-31T04:32:01;11.82;;;4.00;;
50739;SDS011;36704;52.524;17.580;2023-05-31T04:34:47;9.57;;;4.97;;
50739;SDS011;36704;52.524;17.580;2023-05-31T04:37:36;9.68;;;4.40;;
50739;SDS011;36704;52.524;17.580;2023-05-31T04:40:25;17.15;;;5.22;;
50739;SDS011;36704;52.524;17.580;2023-05-31T04:43:12;14.75;;;5.57;;
50739;SDS011;36704;52.524;17.580;2023-05-31T04:45:58;11.45;;;4.55;;
50739;SDS011;36704;52.524;17.580;2023-05-31T04:51:36;18.00;;;7.43;;
50739;SDS011;36704;52.524;17.580;2023-05-31T04:54:23;11.13;;;4.82;;
50739;SDS011;36704;52.524;17.580;2023-05-31T04:57:09;14.02;;;4.82;;
50739;SDS011;36704;52.524;17.580;2023-05-31T04:59:55;16.27;;;5.60;;
50739;SDS011;36704;52.524;17.580;2023-05-31T05:02:44;13.13;;;4.70;;
50739;SDS011;36704;52.524;17.580;2023-05-31T05:05:31;8.18;;;3.95;;
50739;SDS011;36704;52.524;17.580;2023-05-31T05:08:17;7.15;;;3.55;;
50739;SDS011;36704;52.524;17.580;2023-05-31T05:11:05;17.13;;;5.00;;
50739;SDS011;36704;52.524;17.580;2023-05-31T05:13:51;12.73;;;3.97;;
50739;SDS011;36704;52.524;17.580;2023-05-31T05:16:41;8.88;;;3.78;;
50739;SDS011;36704;52.524;17.580;2023-05-31T05:19:27;12.63;;;3.97;;
50739;SDS011;36704;52.524;17.580;2023-05-31T05:22:14;9.57;;;4.00;;
50739;SDS011;36704;52.524;17.580;2023-05-31T05:25:00;9.43;;;3.90;;
50739;SDS011;36704;52.524;17.580;2023-05-31T05:27:48;13.90;;;3.58;;
50739;SDS011;36704;52.524;17.580;2023-05-31T05:30:34;10.15;;;3.67;;
50739;SDS011;36704;52.524;17.580;2023-05-31T05:33:20;8.35;;;3.10;;
50739;SDS011;36704;52.524;17.580;2023-05-31T05:36:07;10.55;;;3.22;;
50739;SDS011;36704;52.524;17.580;2023-05-31T05:39:00;12.45;;;4.32;;
50739;SDS011;36704;52.524;17.580;2023-05-31T05:41:51;10.05;;;3.58;;
50739;SDS011;36704;52.524;17.580;2023-05-31T05:44:39;7.78;;;3.17;;
50739;SDS011;36704;52.524;17.580;2023-05-31T05:47:26;7.70;;;3.30;;
50739;SDS011;36704;52.524;17.580;2023-05-31T05:50:12;11.65;;;3.22;;
50739;SDS011;36704;52.524;17.580;2023-05-31T05:52:59;7.70;;;3.13;;
50739;SDS011;36704;52.524;17.580;2023-05-31T05:55:47;9.55;;;3.17;;
50739;SDS011;36704;52.524;17.580;2023-05-31T05:58:39;7.07;;;2.55;;
50739;SDS011;36704;52.524;17.580;2023-05-31T06:02:01;7.70;;;2.38;;
50739;SDS011;36704;52.524;17.580;2023-05-31T06:04:48;7.68;;;2.47;;
50739;SDS011;36704;52.524;17.580;2023-05-31T06:07:36;6.90;;;2.40;;
50739;SDS011;36704;52.524;17.580;2023-05-31T06:10:22;6.95;;;1.63;;
50739;SDS011;36704;52.524;17.580;2023-05-31T06:13:10;49.60;;;7.03;;
50739;SDS011;36704;52.524;17.580;2023-05-31T06:15:57;12.55;;;2.97;;
50739;SDS011;36704;52.524;17.580;2023-05-31T06:18:44;5.32;;;2.00;;
50739;SDS011;36704;52.524;17.580;2023-05-31T06:21:30;7.07;;;2.30;;
50739;SDS011;36704;52.524;17.580;2023-05-31T06:24:16;6.68;;;1.92;;
50739;SDS011;36704;52.524;17.580;2023-05-31T06:27:02;8.00;;;2.20;;
50739;SDS011;36704;52.524;17.580;2023-05-31T06:29:52;8.48;;;1.83;;
50739;SDS011;36704;52.524;17.580;2023-05-31T06:32:57;6.43;;;1.70;;
50739;SDS011;36704;52.524;17.580;2023-05-31T06:35:44;13.52;;;3.45;;
50739;SDS011;36704;52.524;17.580;2023-05-31T06:38:31;4.00;;;1.75;;
50739;SDS011;36704;52.524;17.580;2023-05-31T06:41:17;13.80;;;3.05;;
50739;SDS011;36704;52.524;17.580;2023-05-31T06:44:03;5.13;;;1.73;;
50739;SDS011;36704;52.524;17.580;2023-05-31T06:47:00;5.53;;;1.75;;
50739;SDS011;36704;52.524;17.580;2023-05-31T06:50:12;4.15;;;1.70;;
50739;SDS011;36704;52.524;17.580;2023-05-31T06:53:04;6.55;;;1.60;;
50739;SDS011;36704;52.524;17.580;2023-05-31T06:55:58;4.97;;;1.58;;
50739;SDS011;36704;52.524;17.580;2023-05-31T06:58:45;37.95;;;5.88;;
50739;SDS011;36704;52.524;17.580;2023-05-31T07:01:32;7.43;;;2.00;;
50739;SDS011;36704;52.524;17.580;2023-05-31T07:04:20;4.80;;;1.63;;
50739;SDS011;36704;52.524;17.580;2023-05-31T07:07:06;10.85;;;2.38;;
50739;SDS011;36704;52.524;17.580;2023-05-31T07:09:54;7.00;;;2.10;;
50739;SDS011;36704;52.524;17.580;2023-05-31T07:12:40;5.15;;;1.52;;
50739;SDS011;36704;52.524;17.580;2023-05-31T07:15:27;5.38;;;2.10;;
50739;SDS011;36704;52.524;17.580;2023-05-31T07:18:13;3.95;;;1.83;;
50739;SDS011;36704;52.524;17.580;2023-05-31T07:20:59;4.03;;;1.67;;
50739;SDS011;36704;52.524;17.580;2023-05-31T07:23:46;9.13;;;1.50;;
50739;SDS011;36704;52.524;17.580;2023-05-31T07:26:33;4.53;;;2.08;;
50739;SDS011;36704;52.524;17.580;2023-05-31T07:29:19;4.25;;;1.67;;
50739;SDS011;36704;52.524;17.580;2023-05-31T07:32:05;3.03;;;1.40;;
50739;SDS011;36704;52.524;17.580;2023-05-31T07:34:52;3.95;;;1.55;;
50739;SDS011;36704;52.524;17.580;2023-05-31T07:37:50;8.20;;;2.20;;
50739;SDS011;36704;52.524;17.580;2023-05-31T07:40:36;4.53;;;1.75;;
50739;SDS011;36704;52.524;17.580;2023-05-31T07:43:23;5.95;;;1.52;;
50739;SDS011;36704;52.524;17.580;2023-05-31T07:46:10;4.38;;;1.63;;
50739;SDS011;36704;52.524;17.580;2023-05-31T07:48:56;4.10;;;1.75;;
50739;SDS011;36704;52.524;17.580;2023-05-31T07:51:42;5.22;;;1.73;;
50739;SDS011;36704;52.524;17.580;2023-05-31T07:54:29;5.50;;;1.80;;
50739;SDS011;36704;52.524;17.580;2023-05-31T07:57:15;8.75;;;2.00;;
50739;SDS011;36704;52.524;17.580;2023-05-31T08:00:02;4.93;;;1.65;;
50739;SDS011;36704;52.524;17.580;2023-05-31T08:02:56;3.85;;;1.67;;
50739;SDS011;36704;52.524;17.580;2023-05-31T08:05:42;5.70;;;2.03;;
50739;SDS011;36704;52.524;17.580;2023-05-31T08:08:28;4.35;;;1.80;;
50739;SDS011;36704;52.524;17.580;2023-05-31T08:11:15;4.35;;;1.73;;
50739;SDS011;36704;52.524;17.580;2023-05-31T08:14:02;6.00;;;1.75;;
50739;SDS011;36704;52.524;17.580;2023-05-31T08:16:49;5.85;;;2.13;;
50739;SDS011;36704;52.524;17.580;2023-05-31T08:19:36;3.38;;;2.00;;
50739;SDS011;36704;52.524;17.580;2023-05-31T08:22:23;9.07;;;1.83;;
50739;SDS011;36704;52.524;17.580;2023-05-31T08:25:09;8.77;;;1.65;;
50739;SDS011;36704;52.524;17.580;2023-05-31T08:27:58;9.20;;;2.28;;
50739;SDS011;36704;52.524;17.580;2023-05-31T08:30:45;8.10;;;1.70;;
50739;SDS011;36704;52.524;17.580;2023-05-31T08:33:31;6.80;;;1.90;;
50739;SDS011;36704;52.524;17.580;2023-05-31T08:36:18;6.80;;;1.75;;
50739;SDS011;36704;52.524;17.580;2023-05-31T08:39:04;3.63;;;1.52;;
50739;SDS011;36704;52.524;17.580;2023-05-31T08:44:45;5.97;;;2.08;;
50739;SDS011;36704;52.524;17.580;2023-05-31T08:47:35;5.35;;;1.40;;
50739;SDS011;36704;52.524;17.580;2023-05-31T08:50:22;2.40;;;1.30;;
50739;SDS011;36704;52.524;17.580;2023-05-31T08:53:10;4.53;;;1.30;;
50739;SDS011;36704;52.524;17.580;2023-05-31T08:55:56;3.67;;;1.30;;
50739;SDS011;36704;52.524;17.580;2023-05-31T08:58:48;3.95;;;1.33;;
50739;SDS011;36704;52.524;17.580;2023-05-31T09:01:36;3.80;;;1.40;;
50739;SDS011;36704;52.524;17.580;2023-05-31T09:04:25;5.45;;;1.50;;
50739;SDS011;36704;52.524;17.580;2023-05-31T09:07:11;4.10;;;1.35;;
50739;SDS011;36704;52.524;17.580;2023-05-31T09:09:57;3.85;;;1.50;;
50739;SDS011;36704;52.524;17.580;2023-05-31T09:12:43;2.85;;;1.20;;
50739;SDS011;36704;52.524;17.580;2023-05-31T09:15:29;4.25;;;1.23;;
50739;SDS011;36704;52.524;17.580;2023-05-31T09:18:21;3.65;;;1.33;;
50739;SDS011;36704;52.524;17.580;2023-05-31T09:21:09;5.60;;;1.17;;
50739;SDS011;36704;52.524;17.580;2023-05-31T09:23:56;6.70;;;1.63;;
50739;SDS011;36704;52.524;17.580;2023-05-31T09:26:47;4.32;;;1.33;;
50739;SDS011;36704;52.524;17.580;2023-05-31T09:29:36;3.35;;;1.30;;
50739;SDS011;36704;52.524;17.580;2023-05-31T09:32:22;4.32;;;1.05;;
50739;SDS011;36704;52.524;17.580;2023-05-31T09:35:17;2.58;;;1.15;;
50739;SDS011;36704;52.524;17.580;2023-05-31T09:38:06;4.63;;;1.73;;
50739;SDS011;36704;52.524;17.580;2023-05-31T09:40:52;1.63;;;1.15;;
50739;SDS011;36704;52.524;17.580;2023-05-31T09:43:39;2.60;;;0.82;;
50739;SDS011;36704;52.524;17.580;2023-05-31T09:46:26;3.90;;;1.30;;
50739;SDS011;36704;52.524;17.580;2023-05-31T09:49:13;2.45;;;0.95;;
50739;SDS011;36704;52.524;17.580;2023-05-31T09:51:59;3.35;;;1.05;;
50739;SDS011;36704;52.524;17.580;2023-05-31T09:54:45;3.58;;;1.08;;
50739;SDS011;36704;52.524;17.580;2023-05-31T09:57:36;2.20;;;1.08;;
50739;SDS011;36704;52.524;17.580;2023-05-31T10:00:26;3.83;;;0.88;;
50739;SDS011;36704;52.524;17.580;2023-05-31T10:03:12;4.63;;;1.10;;
50739;SDS011;36704;52.524;17.580;2023-05-31T10:05:59;3.00;;;0.98;;
50739;SDS011;36704;52.524;17.580;2023-05-31T10:08:46;2.97;;;1.20;;
50739;SDS011;36704;52.524;17.580;2023-05-31T10:11:33;2.00;;;0.98;;
50739;SDS011;36704;52.524;17.580;2023-05-31T10:14:26;3.90;;;1.13;;
50739;SDS011;36704;52.524;17.580;2023-05-31T10:17:15;2.47;;;0.90;;
50739;SDS011;36704;52.524;17.580;2023-05-31T10:20:06;2.50;;;1.17;;
50739;SDS011;36704;52.524;17.580;2023-05-31T10:22:54;2.10;;;1.00;;
50739;SDS011;36704;52.524;17.580;2023-05-31T10:29:00;2.55;;;1.30;;
50739;SDS011;36704;52.524;17.580;2023-05-31T10:31:54;1.65;;;1.10;;
50739;SDS011;36704;52.524;17.580;2023-05-31T10:34:41;2.25;;;1.02;;
50739;SDS011;36704;52.524;17.580;2023-05-31T10:37:27;3.92;;;1.05;;
50739;SDS011;36704;52.524;17.580;2023-05-31T10:40:19;6.55;;;1.38;;
50739;SDS011;36704;52.524;17.580;2023-05-31T10:43:20;1.25;;;1.05;;
50739;SDS011;36704;52.524;17.580;2023-05-31T10:46:10;1.35;;;0.90;;
50739;SDS011;36704;52.524;17.580;2023-05-31T10:49:01;2.85;;;1.00;;
50739;SDS011;36704;52.524;17.580;2023-05-31T10:51:48;3.00;;;1.00;;
50739;SDS011;36704;52.524;17.580;2023-05-31T10:54:35;3.03;;;1.02;;
50739;SDS011;36704;52.524;17.580;2023-05-31T10:57:21;2.05;;;1.20;;
50739;SDS011;36704;52.524;17.580;2023-05-31T11:00:08;2.05;;;0.80;;
50739;SDS011;36704;52.524;17.580;2023-05-31T11:02:58;6.53;;;1.10;;
50739;SDS011;36704;52.524;17.580;2023-05-31T11:05:53;3.17;;;1.10;;
50739;SDS011;36704;52.524;17.580;2023-05-31T11:08:56;1.67;;;1.08;;
50739;SDS011;36704;52.524;17.580;2023-05-31T11:11:48;1.52;;;0.85;;
50739;SDS011;36704;52.524;17.580;2023-05-31T11:14:35;3.35;;;1.45;;
50739;SDS011;36704;52.524;17.580;2023-05-31T11:17:21;2.72;;;1.00;;
50739;SDS011;36704;52.524;17.580;2023-05-31T11:20:14;1.88;;;0.88;;
50739;SDS011;36704;52.524;17.580;2023-05-31T11:26:20;4.38;;;0.93;;
50739;SDS011;36704;52.524;17.580;2023-05-31T11:29:06;3.25;;;1.30;;
50739;SDS011;36704;52.524;17.580;2023-05-31T11:35:03;2.83;;;1.10;;
50739;SDS011;36704;52.524;17.580;2023-05-31T11:37:58;6.03;;;1.20;;
50739;SDS011;36704;52.524;17.580;2023-05-31T11:40:45;4.82;;;1.20;;
50739;SDS011;36704;52.524;17.580;2023-05-31T11:43:32;2.22;;;1.00;;
50739;SDS011;36704;52.524;17.580;2023-05-31T11:46:18;1.33;;;1.02;;
50739;SDS011;36704;52.524;17.580;2023-05-31T11:49:04;1.98;;;0.90;;
50739;SDS011;36704;52.524;17.580;2023-05-31T11:51:53;2.28;;;1.00;;
50739;SDS011;36704;52.524;17.580;2023-05-31T11:54:42;1.52;;;0.90;;
50739;SDS011;36704;52.524;17.580;2023-05-31T11:57:29;1.05;;;0.82;;
50739;SDS011;36704;52.524;17.580;2023-05-31T12:00:16;1.27;;;0.80;;
50739;SDS011;36704;52.524;17.580;2023-05-31T12:03:06;3.38;;;1.30;;
50739;SDS011;36704;52.524;17.580;2023-05-31T12:05:56;1.85;;;0.90;;
50739;SDS011;36704;52.524;17.580;2023-05-31T12:08:44;2.90;;;1.20;;
50739;SDS011;36704;52.524;17.580;2023-05-31T12:11:30;4.93;;;1.80;;
50739;SDS011;36704;52.524;17.580;2023-05-31T12:14:17;1.52;;;1.02;;
50739;SDS011;36704;52.524;17.580;2023-05-31T12:17:04;4.43;;;1.10;;
50739;SDS011;36704;52.524;17.580;2023-05-31T12:19:51;4.70;;;1.45;;
50739;SDS011;36704;52.524;17.580;2023-05-31T12:22:38;1.65;;;0.93;;
50739;SDS011;36704;52.524;17.580;2023-05-31T12:25:26;3.88;;;1.08;;
50739;SDS011;36704;52.524;17.580;2023-05-31T12:28:14;1.08;;;0.85;;
50739;SDS011;36704;52.524;17.580;2023-05-31T12:31:02;2.28;;;1.20;;
50739;SDS011;36704;52.524;17.580;2023-05-31T12:36:47;1.95;;;1.15;;
50739;SDS011;36704;52.524;17.580;2023-05-31T12:39:34;5.22;;;1.10;;
50739;SDS011;36704;52.524;17.580;2023-05-31T12:42:24;2.92;;;1.00;;
50739;SDS011;36704;52.524;17.580;2023-05-31T12:45:10;1.55;;;0.98;;
50739;SDS011;36704;52.524;17.580;2023-05-31T12:47:57;2.17;;;1.17;;
50739;SDS011;36704;52.524;17.580;2023-05-31T12:50:45;2.15;;;1.20;;
50739;SDS011;36704;52.524;17.580;2023-05-31T12:53:31;1.40;;;1.08;;
50739;SDS011;36704;52.524;17.580;2023-05-31T12:56:18;3.42;;;1.00;;
50739;SDS011;36704;52.524;17.580;2023-05-31T12:59:04;2.17;;;1.25;;
50739;SDS011;36704;52.524;17.580;2023-05-31T13:01:50;2.10;;;1.08;;
50739;SDS011;36704;52.524;17.580;2023-05-31T13:04:37;5.10;;;1.25;;
50739;SDS011;36704;52.524;17.580;2023-05-31T13:07:23;1.98;;;1.17;;
50739;SDS011;36704;52.524;17.580;2023-05-31T13:10:09;2.75;;;1.10;;
50739;SDS011;36704;52.524;17.580;2023-05-31T13:12:57;1.38;;;0.93;;
50739;SDS011;36704;52.524;17.580;2023-05-31T13:15:43;2.13;;;0.90;;
50739;SDS011;36704;52.524;17.580;2023-05-31T13:18:32;1.58;;;0.90;;
50739;SDS011;36704;52.524;17.580;2023-05-31T13:21:18;3.83;;;1.30;;
50739;SDS011;36704;52.524;17.580;2023-05-31T13:24:05;4.78;;;0.98;;
50739;SDS011;36704;52.524;17.580;2023-05-31T13:26:52;2.60;;;1.20;;
50739;SDS011;36704;52.524;17.580;2023-05-31T13:29:38;3.00;;;0.88;;
50739;SDS011;36704;52.524;17.580;2023-05-31T13:32:25;2.15;;;1.00;;
50739;SDS011;36704;52.524;17.580;2023-05-31T13:35:11;2.05;;;1.20;;
50739;SDS011;36704;52.524;17.580;2023-05-31T13:37:58;1.77;;;1.00;;
50739;SDS011;36704;52.524;17.580;2023-05-31T13:40:44;1.55;;;0.85;;
50739;SDS011;36704;52.524;17.580;2023-05-31T13:43:31;1.30;;;0.80;;
50739;SDS011;36704;52.524;17.580;2023-05-31T13:46:19;2.47;;;1.20;;
50739;SDS011;36704;52.524;17.580;2023-05-31T13:49:05;1.77;;;1.10;;
50739;SDS011;36704;52.524;17.580;2023-05-31T13:51:51;2.55;;;1.05;;
50739;SDS011;36704;52.524;17.580;2023-05-31T13:54:37;2.28;;;1.25;;
50739;SDS011;36704;52.524;17.580;2023-05-31T13:57:24;3.38;;;1.10;;
50739;SDS011;36704;52.524;17.580;2023-05-31T14:00:10;5.38;;;1.17;;
50739;SDS011;36704;52.524;17.580;2023-05-31T14:02:56;2.40;;;1.00;;
50739;SDS011;36704;52.524;17.580;2023-05-31T14:05:43;4.63;;;1.10;;
50739;SDS011;36704;52.524;17.580;2023-05-31T14:08:31;2.83;;;1.63;;
50739;SDS011;36704;52.524;17.580;2023-05-31T14:11:17;3.90;;;1.15;;
50739;SDS011;36704;52.524;17.580;2023-05-31T14:14:03;2.72;;;1.30;;
50739;SDS011;36704;52.524;17.580;2023-05-31T14:16:50;5.65;;;1.08;;
50739;SDS011;36704;52.524;17.580;2023-05-31T14:19:36;2.55;;;1.50;;
50739;SDS011;36704;52.524;17.580;2023-05-31T14:22:22;2.70;;;1.27;;
50739;SDS011;36704;52.524;17.580;2023-05-31T14:25:09;3.08;;;1.10;;
50739;SDS011;36704;52.524;17.580;2023-05-31T14:27:56;1.83;;;1.10;;
50739;SDS011;36704;52.524;17.580;2023-05-31T14:30:42;3.58;;;1.20;;
50739;SDS011;36704;52.524;17.580;2023-05-31T14:33:30;3.35;;;1.50;;
50739;SDS011;36704;52.524;17.580;2023-05-31T14:36:17;2.00;;;1.20;;
50739;SDS011;36704;52.524;17.580;2023-05-31T14:39:03;1.88;;;1.13;;
50739;SDS011;36704;52.524;17.580;2023-05-31T14:41:49;2.85;;;1.20;;
50739;SDS011;36704;52.524;17.580;2023-05-31T14:44:36;2.80;;;1.08;;
50739;SDS011;36704;52.524;17.580;2023-05-31T14:47:22;2.13;;;1.20;;
50739;SDS011;36704;52.524;17.580;2023-05-31T14:50:09;2.53;;;1.10;;
50739;SDS011;36704;52.524;17.580;2023-05-31T14:52:55;2.58;;;1.20;;
50739;SDS011;36704;52.524;17.580;2023-05-31T14:55:41;2.25;;;1.00;;
50739;SDS011;36704;52.524;17.580;2023-05-31T14:58:28;1.85;;;1.10;;
50739;SDS011;36704;52.524;17.580;2023-05-31T15:01:14;1.65;;;1.13;;
50739;SDS011;36704;52.524;17.580;2023-05-31T15:04:01;3.08;;;1.23;;
50739;SDS011;36704;52.524;17.580;2023-05-31T15:06:50;3.03;;;1.38;;
50739;SDS011;36704;52.524;17.580;2023-05-31T15:09:36;1.60;;;0.93;;
50739;SDS011;36704;52.524;17.580;2023-05-31T15:12:22;2.42;;;1.20;;
50739;SDS011;36704;52.524;17.580;2023-05-31T15:15:08;2.22;;;1.20;;
50739;SDS011;36704;52.524;17.580;2023-05-31T15:17:58;1.50;;;1.20;;
50739;SDS011;36704;52.524;17.580;2023-05-31T15:20:44;1.77;;;1.05;;
50739;SDS011;36704;52.524;17.580;2023-05-31T15:23:32;1.52;;;1.20;;
50739;SDS011;36704;52.524;17.580;2023-05-31T15:26:18;3.28;;;1.17;;
50739;SDS011;36704;52.524;17.580;2023-05-31T15:29:05;1.83;;;1.20;;
50739;SDS011;36704;52.524;17.580;2023-05-31T15:31:51;2.67;;;1.45;;
50739;SDS011;36704;52.524;17.580;2023-05-31T15:34:39;2.05;;;1.00;;
50739;SDS011;36704;52.524;17.580;2023-05-31T15:37:25;2.25;;;1.38;;
50739;SDS011;36704;52.524;17.580;2023-05-31T15:40:11;1.65;;;0.98;;
50739;SDS011;36704;52.524;17.580;2023-05-31T15:42:58;1.92;;;1.13;;
50739;SDS011;36704;52.524;17.580;2023-05-31T15:45:45;3.05;;;1.40;;
50739;SDS011;36704;52.524;17.580;2023-05-31T15:48:31;1.48;;;1.10;;
50739;SDS011;36704;52.524;17.580;2023-05-31T15:51:17;3.35;;;1.05;;
50739;SDS011;36704;52.524;17.580;2023-05-31T15:54:04;4.45;;;1.05;;
50739;SDS011;36704;52.524;17.580;2023-05-31T15:56:51;3.45;;;1.13;;
50739;SDS011;36704;52.524;17.580;2023-05-31T15:59:38;4.15;;;1.30;;
50739;SDS011;36704;52.524;17.580;2023-05-31T16:02:25;2.25;;;1.10;;
50739;SDS011;36704;52.524;17.580;2023-05-31T16:05:11;2.80;;;1.40;;
50739;SDS011;36704;52.524;17.580;2023-05-31T16:08:02;12.73;;;1.45;;
50739;SDS011;36704;52.524;17.580;2023-05-31T16:10:49;2.75;;;1.30;;
50739;SDS011;36704;52.524;17.580;2023-05-31T16:13:36;3.30;;;1.30;;
50739;SDS011;36704;52.524;17.580;2023-05-31T16:16:22;3.80;;;1.10;;
50739;SDS011;36704;52.524;17.580;2023-05-31T16:19:08;3.75;;;2.08;;
50739;SDS011;36704;52.524;17.580;2023-05-31T16:21:55;3.78;;;1.75;;
50739;SDS011;36704;52.524;17.580;2023-05-31T16:24:41;2.50;;;1.30;;
50739;SDS011;36704;52.524;17.580;2023-05-31T16:27:27;2.78;;;1.35;;
50739;SDS011;36704;52.524;17.580;2023-05-31T16:30:14;6.50;;;1.48;;
50739;SDS011;36704;52.524;17.580;2023-05-31T16:33:00;5.78;;;1.30;;
50739;SDS011;36704;52.524;17.580;2023-05-31T16:35:46;4.50;;;1.75;;
50739;SDS011;36704;52.524;17.580;2023-05-31T16:38:33;6.07;;;1.50;;
50739;SDS011;36704;52.524;17.580;2023-05-31T16:41:20;4.20;;;1.70;;
50739;SDS011;36704;52.524;17.580;2023-05-31T16:44:06;3.60;;;2.05;;
50739;SDS011;36704;52.524;17.580;2023-05-31T16:46:52;6.10;;;1.65;;
50739;SDS011;36704;52.524;17.580;2023-05-31T16:49:40;2.95;;;1.40;;
50739;SDS011;36704;52.524;17.580;2023-05-31T16:52:30;4.90;;;1.52;;
50739;SDS011;36704;52.524;17.580;2023-05-31T16:55:18;3.38;;;1.75;;
50739;SDS011;36704;52.524;17.580;2023-05-31T16:58:05;10.35;;;2.38;;
50739;SDS011;36704;52.524;17.580;2023-05-31T17:00:51;2.60;;;1.20;;